createdAt,value
2017-03-21T00:00:01.912Z,999.45
2017-03-21T00:00:42.401Z,999.44
2017-03-21T00:02:55.136Z,999.4
2017-03-21T00:03:35.617Z,999.41
2017-03-21T00:04:16.106Z,999.41
2017-03-21T00:04:56.591Z,999.41
2017-03-21T00:05:37.088Z,999.47
2017-03-21T00:06:17.555Z,999.45
2017-03-21T00:06:58.042Z,999.44
2017-03-21T00:07:38.528Z,999.43
2017-03-21T00:08:19.027Z,999.44
2017-03-21T00:08:59.516Z,999.44
2017-03-21T00:09:39.993Z,999.43
2017-03-21T00:10:20.464Z,999.47
2017-03-21T00:11:00.971Z,999.38
2017-03-21T00:11:41.425Z,999.43
2017-03-21T00:12:21.908Z,999.47
2017-03-21T00:13:02.393Z,999.43
2017-03-21T00:13:42.894Z,999.41
2017-03-21T00:14:23.386Z,999.37
2017-03-21T00:15:03.883Z,999.42
2017-03-21T00:15:44.359Z,999.41
2017-03-21T00:16:24.864Z,999.45
2017-03-21T00:17:05.331Z,999.45
2017-03-21T00:17:45.808Z,999.37
2017-03-21T00:18:26.299Z,999.39
2017-03-21T00:19:06.799Z,999.4
2017-03-21T00:19:47.276Z,999.38
2017-03-21T00:20:27.762Z,999.33
2017-03-21T00:21:08.237Z,999.38
2017-03-21T00:21:48.733Z,999.32
2017-03-21T00:22:29.199Z,999.34
2017-03-21T00:23:09.676Z,999.27
2017-03-21T00:23:50.171Z,999.35
2017-03-21T00:24:30.652Z,999.32
2017-03-21T00:25:11.147Z,999.3
2017-03-21T00:25:51.655Z,999.31
2017-03-21T00:26:32.169Z,999.31
2017-03-21T00:27:12.661Z,999.28
2017-03-21T00:27:53.164Z,999.26
2017-03-21T00:28:33.649Z,999.26
2017-03-21T00:29:14.111Z,999.29
2017-03-21T00:29:54.582Z,999.3
2017-03-21T00:30:35.050Z,999.28
2017-03-21T00:31:15.509Z,999.19
2017-03-21T00:31:55.971Z,999.29
2017-03-21T00:32:36.472Z,999.27
2017-03-21T00:33:16.967Z,999.32
2017-03-21T00:33:57.461Z,999.26
2017-03-21T00:34:37.957Z,999.34
2017-03-21T00:35:18.431Z,999.3
2017-03-21T00:35:58.909Z,999.26
2017-03-21T00:36:39.376Z,999.31
2017-03-21T00:37:19.860Z,999.23
2017-03-21T00:38:00.349Z,999.26
2017-03-21T00:38:40.824Z,999.31
2017-03-21T00:39:21.309Z,999.24
2017-03-21T00:40:01.768Z,999.26
2017-03-21T00:40:42.237Z,999.28
2017-03-21T00:41:22.723Z,999.27
2017-03-21T00:42:03.221Z,999.26
2017-03-21T00:42:43.691Z,999.25
2017-03-21T00:43:24.181Z,999.29
2017-03-21T00:44:04.676Z,999.25
2017-03-21T00:44:45.166Z,999.26
2017-03-21T00:45:25.648Z,999.28
2017-03-21T00:46:06.149Z,999.26
2017-03-21T00:46:46.618Z,999.25
2017-03-21T00:47:27.090Z,999.23
2017-03-21T00:48:07.570Z,999.25
2017-03-21T00:48:48.048Z,999.24
2017-03-21T00:49:28.546Z,999.23
2017-03-21T00:50:09.020Z,999.24
2017-03-21T00:50:49.494Z,999.2
2017-03-21T00:51:29.988Z,999.26
2017-03-21T00:52:10.483Z,999.21
2017-03-21T00:52:50.979Z,999.22
2017-03-21T00:53:31.462Z,999.27
2017-03-21T00:54:11.955Z,999.25
2017-03-21T00:54:52.418Z,999.28
2017-03-21T00:55:32.893Z,999.32
2017-03-21T00:56:13.395Z,999.32
2017-03-21T00:56:53.852Z,999.33
2017-03-21T00:57:34.349Z,999.29
2017-03-21T00:58:14.825Z,999.29
2017-03-21T00:58:55.297Z,999.32
2017-03-21T00:59:35.783Z,999.32
2017-03-21T01:00:16.283Z,999.33
2017-03-21T01:00:56.783Z,999.32
2017-03-21T01:01:37.260Z,999.33
2017-03-21T01:02:17.765Z,999.36
2017-03-21T01:02:58.239Z,999.36
2017-03-21T01:03:38.711Z,999.33
2017-03-21T01:04:19.159Z,999.32
2017-03-21T01:04:59.636Z,999.29
2017-03-21T01:05:40.128Z,999.32
2017-03-21T01:06:20.616Z,999.36
2017-03-21T01:07:01.092Z,999.33
2017-03-21T01:07:41.559Z,999.28
2017-03-21T01:08:22.053Z,999.31
2017-03-21T01:09:02.551Z,999.3
2017-03-21T01:09:43.028Z,999.32
2017-03-21T01:10:23.494Z,999.31
2017-03-21T01:11:03.992Z,999.3
2017-03-21T01:11:44.487Z,999.28
2017-03-21T01:12:24.970Z,999.36
2017-03-21T01:13:05.458Z,999.34
2017-03-21T01:13:45.961Z,999.36
2017-03-21T01:14:26.451Z,999.31
2017-03-21T01:15:06.944Z,999.3
2017-03-21T01:15:47.441Z,999.29
2017-03-21T01:16:27.919Z,999.28
2017-03-21T01:17:08.411Z,999.31
2017-03-21T01:17:48.915Z,999.3
2017-03-21T01:18:29.378Z,999.31
2017-03-21T01:19:09.888Z,999.25
2017-03-21T01:19:50.447Z,999.33
2017-03-21T01:20:30.919Z,999.3
2017-03-21T01:21:11.412Z,999.32
2017-03-21T01:21:51.898Z,999.32
2017-03-21T01:22:32.390Z,999.28
2017-03-21T01:23:12.890Z,999.27
2017-03-21T01:23:53.373Z,999.32
2017-03-21T01:24:33.870Z,999.28
2017-03-21T01:25:14.366Z,999.3
2017-03-21T01:25:54.850Z,999.34
2017-03-21T01:26:35.337Z,999.36
2017-03-21T01:27:15.829Z,999.33
2017-03-21T01:27:56.328Z,999.33
2017-03-21T01:28:36.804Z,999.34
2017-03-21T01:29:17.239Z,999.36
2017-03-21T01:29:57.743Z,999.34
2017-03-21T01:30:38.238Z,999.28
2017-03-21T01:31:18.717Z,999.32
2017-03-21T01:31:59.188Z,999.28
2017-03-21T01:32:39.679Z,999.29
2017-03-21T01:33:20.180Z,999.26
2017-03-21T01:34:00.657Z,999.23
2017-03-21T01:34:41.179Z,999.23
2017-03-21T01:35:21.659Z,999.26
2017-03-21T01:36:02.132Z,999.22
2017-03-21T01:36:42.630Z,999.26
2017-03-21T01:37:23.123Z,999.26
2017-03-21T01:38:03.588Z,999.21
2017-03-21T01:38:44.065Z,999.25
2017-03-21T01:39:24.555Z,999.23
2017-03-21T01:40:05.061Z,999.24
2017-03-21T01:40:45.545Z,999.23
2017-03-21T01:41:26.040Z,999.24
2017-03-21T01:42:06.539Z,999.25
2017-03-21T01:42:47.022Z,999.16
2017-03-21T01:43:27.505Z,999.23
2017-03-21T01:44:08.013Z,999.14
2017-03-21T01:44:48.500Z,999.22
2017-03-21T01:45:28.954Z,999.16
2017-03-21T01:46:09.446Z,999.19
2017-03-21T01:46:49.913Z,999.15
2017-03-21T01:47:30.406Z,999.16
2017-03-21T01:48:10.892Z,999.15
2017-03-21T01:48:51.390Z,999.11
2017-03-21T01:49:31.884Z,999.14
2017-03-21T01:50:12.370Z,999.17
2017-03-21T01:50:52.841Z,999.24
2017-03-21T01:51:33.291Z,999.07
2017-03-21T01:52:13.754Z,999.14
2017-03-21T01:52:54.185Z,999.11
2017-03-21T01:53:34.653Z,999.17
2017-03-21T01:54:15.121Z,999.09
2017-03-21T01:54:55.582Z,999.11
2017-03-21T01:55:36.055Z,999.13
2017-03-21T01:56:16.512Z,999.09
2017-03-21T01:56:56.986Z,999.08
2017-03-21T01:57:37.438Z,999.11
2017-03-21T01:58:17.892Z,999.07
2017-03-21T01:58:58.357Z,999.04
2017-03-21T01:59:38.779Z,999.05
2017-03-21T02:00:19.232Z,999.05
2017-03-21T02:00:59.669Z,999.07
2017-03-21T02:01:40.145Z,999.04
2017-03-21T02:02:20.593Z,999.07
2017-03-21T02:03:01.016Z,999.09
2017-03-21T02:05:28.951Z,999.02
2017-03-21T02:06:09.418Z,998.98
2017-03-21T02:06:49.918Z,998.97
2017-03-21T02:07:30.397Z,999.01
2017-03-21T02:08:10.887Z,999.01
2017-03-21T02:08:51.368Z,999.01
2017-03-21T02:09:31.851Z,999.08
2017-03-21T02:10:12.323Z,998.97
2017-03-21T02:10:52.826Z,998.97
2017-03-21T02:11:33.330Z,999.01
2017-03-21T02:12:13.808Z,998.99
2017-03-21T02:12:54.303Z,998.97
2017-03-21T02:13:34.782Z,998.97
2017-03-21T02:14:15.246Z,998.95
2017-03-21T02:14:55.720Z,998.98
2017-03-21T02:15:36.207Z,999
2017-03-21T02:16:16.694Z,998.99
2017-03-21T02:16:57.180Z,998.97
2017-03-21T02:17:37.662Z,998.92
2017-03-21T02:18:18.155Z,998.96
2017-03-21T02:18:58.650Z,998.88
2017-03-21T02:19:39.149Z,998.93
2017-03-21T02:20:19.644Z,998.89
2017-03-21T02:21:00.159Z,998.9
2017-03-21T02:21:40.610Z,998.95
2017-03-21T02:22:21.087Z,998.91
2017-03-21T02:23:01.584Z,998.94
2017-03-21T02:23:42.072Z,998.94
2017-03-21T02:24:22.559Z,998.88
2017-03-21T02:25:03.073Z,998.95
2017-03-21T02:25:43.542Z,998.91
2017-03-21T02:26:24.039Z,998.85
2017-03-21T02:27:04.486Z,998.85
2017-03-21T02:27:44.956Z,998.87
2017-03-21T02:28:25.452Z,998.8
2017-03-21T02:29:05.933Z,998.93
2017-03-21T02:29:46.394Z,998.88
2017-03-21T02:30:26.866Z,998.83
2017-03-21T02:31:07.283Z,998.82
2017-03-21T02:31:47.765Z,998.82
2017-03-21T02:32:28.243Z,998.73
2017-03-21T02:33:08.737Z,998.84
2017-03-21T02:33:49.223Z,998.82
2017-03-21T02:34:29.700Z,998.84
2017-03-21T02:35:10.173Z,998.88
2017-03-21T02:35:50.654Z,998.87
2017-03-21T02:36:31.155Z,998.89
2017-03-21T02:37:11.675Z,998.9
2017-03-21T02:37:52.164Z,998.88
2017-03-21T02:38:32.646Z,998.87
2017-03-21T02:39:13.128Z,998.85
2017-03-21T02:39:53.598Z,998.87
2017-03-21T02:40:34.083Z,998.87
2017-03-21T02:41:14.570Z,998.85
2017-03-21T02:41:55.052Z,998.87
2017-03-21T02:42:35.540Z,998.88
2017-03-21T02:43:16.027Z,998.93
2017-03-21T02:43:56.516Z,998.89
2017-03-21T02:44:36.981Z,998.88
2017-03-21T02:45:17.447Z,998.91
2017-03-21T02:45:57.928Z,998.9
2017-03-21T02:46:38.409Z,998.9
2017-03-21T02:47:18.897Z,998.9
2017-03-21T02:47:59.363Z,998.9
2017-03-21T02:48:39.858Z,998.89
2017-03-21T02:49:20.326Z,998.92
2017-03-21T02:50:00.790Z,998.91
2017-03-21T02:50:41.291Z,998.92
2017-03-21T02:51:21.771Z,998.92
2017-03-21T02:52:02.263Z,998.94
2017-03-21T02:52:42.767Z,998.94
2017-03-21T02:53:23.247Z,998.91
2017-03-21T02:54:03.731Z,998.93
2017-03-21T02:54:44.200Z,998.94
2017-03-21T02:55:24.704Z,999
2017-03-21T02:56:05.175Z,998.99
2017-03-21T02:56:45.658Z,999.01
2017-03-21T02:57:26.123Z,999.02
2017-03-21T02:58:06.593Z,999.07
2017-03-21T02:58:47.136Z,998.95
2017-03-21T02:59:27.588Z,998.99
2017-03-21T03:00:08.071Z,999.01
2017-03-21T03:00:48.574Z,999.01
2017-03-21T03:01:29.056Z,999.03
2017-03-21T03:02:09.532Z,999.02
2017-03-21T03:02:50.023Z,998.97
2017-03-21T03:03:30.517Z,999.06
2017-03-21T03:04:11.007Z,999.01
2017-03-21T03:04:51.471Z,999.01
2017-03-21T03:05:31.957Z,999.01
2017-03-21T03:06:12.439Z,999.05
2017-03-21T03:06:52.923Z,999.07
2017-03-21T03:07:33.408Z,999.06
2017-03-21T03:08:13.903Z,999.04
2017-03-21T03:08:54.395Z,999.04
2017-03-21T03:09:34.870Z,999.04
2017-03-21T03:10:15.353Z,999.02
2017-03-21T03:10:55.841Z,999.04
2017-03-21T03:11:36.321Z,999.04
2017-03-21T03:12:16.802Z,999
2017-03-21T03:12:57.297Z,999.02
2017-03-21T03:13:37.736Z,999.02
2017-03-21T03:14:18.199Z,999.01
2017-03-21T03:14:58.660Z,999.05
2017-03-21T03:15:39.159Z,999.02
2017-03-21T03:16:19.637Z,999
2017-03-21T03:17:00.113Z,999
2017-03-21T03:17:40.591Z,999.04
2017-03-21T03:18:21.084Z,999.03
2017-03-21T03:19:01.564Z,999.08
2017-03-21T03:19:42.047Z,999.06
2017-03-21T03:20:22.550Z,999.06
2017-03-21T03:21:03.044Z,999.02
2017-03-21T03:21:43.515Z,999.09
2017-03-21T03:22:23.988Z,998.99
2017-03-21T03:23:04.469Z,998.95
2017-03-21T03:23:44.978Z,999.01
2017-03-21T03:24:25.451Z,999.01
2017-03-21T03:26:43.246Z,998.98
2017-03-21T03:27:23.701Z,998.97
2017-03-21T03:28:04.212Z,998.97
2017-03-21T03:28:44.695Z,999.01
2017-03-21T03:29:25.171Z,998.96
2017-03-21T03:30:05.714Z,998.95
2017-03-21T03:30:46.154Z,998.93
2017-03-21T03:31:26.639Z,998.94
2017-03-21T03:32:07.123Z,998.9
2017-03-21T03:32:47.626Z,998.96
2017-03-21T03:33:28.102Z,998.93
2017-03-21T03:34:08.586Z,998.96
2017-03-21T03:34:49.054Z,998.88
2017-03-21T03:35:29.561Z,998.94
2017-03-21T03:36:10.046Z,998.92
2017-03-21T03:36:50.541Z,998.88
2017-03-21T03:37:31.041Z,998.88
2017-03-21T03:38:11.524Z,998.91
2017-03-21T03:38:52.019Z,998.86
2017-03-21T03:39:32.527Z,998.86
2017-03-21T03:40:13.003Z,998.88
2017-03-21T03:40:53.497Z,998.88
2017-03-21T03:41:33.994Z,998.8
2017-03-21T03:42:14.477Z,998.87
2017-03-21T03:42:54.978Z,998.88
2017-03-21T03:43:35.469Z,998.92
2017-03-21T03:45:53.280Z,998.9
2017-03-21T03:46:33.773Z,998.79
2017-03-21T03:47:14.255Z,998.87
2017-03-21T03:47:54.744Z,998.85
2017-03-21T03:48:35.226Z,998.79
2017-03-21T03:49:15.730Z,998.87
2017-03-21T03:49:56.213Z,998.83
2017-03-21T03:50:36.686Z,998.85
2017-03-21T03:51:17.212Z,998.84
2017-03-21T03:51:57.680Z,998.85
2017-03-21T03:52:38.171Z,998.81
2017-03-21T03:53:18.649Z,998.77
2017-03-21T03:53:59.117Z,998.86
2017-03-21T03:54:39.603Z,998.84
2017-03-21T03:55:20.081Z,998.85
2017-03-21T03:56:00.565Z,998.86
2017-03-21T03:56:41.054Z,998.86
2017-03-21T03:57:21.538Z,998.84
2017-03-21T03:58:02.016Z,998.85
2017-03-21T03:58:42.495Z,998.86
2017-03-21T03:59:22.987Z,998.82
2017-03-21T04:00:03.488Z,998.79
2017-03-21T04:02:01.086Z,998.84
2017-03-21T04:02:41.541Z,998.98
2017-03-21T04:03:22.036Z,998.9
2017-03-21T04:04:02.534Z,998.93
2017-03-21T04:04:43.017Z,998.81
2017-03-21T04:05:23.517Z,998.93
2017-03-21T04:06:04.010Z,998.97
2017-03-21T04:06:44.483Z,998.95
2017-03-21T04:07:24.957Z,998.92
2017-03-21T04:08:05.460Z,998.9
2017-03-21T04:08:45.954Z,998.94
2017-03-21T04:09:26.447Z,998.92
2017-03-21T04:10:06.929Z,998.96
2017-03-21T04:10:47.426Z,998.98
2017-03-21T04:11:27.903Z,998.96
2017-03-21T04:12:08.381Z,998.98
2017-03-21T04:12:48.878Z,998.88
2017-03-21T04:13:29.364Z,998.91
2017-03-21T04:14:09.846Z,998.89
2017-03-21T04:14:50.384Z,998.91
2017-03-21T04:15:30.831Z,998.85
2017-03-21T04:17:28.454Z,998.84
2017-03-21T04:18:08.945Z,998.83
2017-03-21T04:18:49.408Z,998.87
2017-03-21T04:19:29.896Z,998.81
2017-03-21T04:20:10.381Z,998.89
2017-03-21T04:20:50.890Z,998.84
2017-03-21T04:21:31.379Z,998.82
2017-03-21T04:22:11.864Z,998.75
2017-03-21T04:22:52.355Z,998.9
2017-03-21T04:23:32.856Z,998.84
2017-03-21T04:24:13.330Z,998.77
2017-03-21T04:24:53.817Z,998.86
2017-03-21T04:25:34.290Z,998.79
2017-03-21T04:26:14.795Z,998.8
2017-03-21T04:26:55.273Z,998.78
2017-03-21T04:27:35.750Z,998.74
2017-03-21T04:28:16.241Z,998.76
2017-03-21T04:28:56.727Z,998.79
2017-03-21T04:29:37.186Z,998.75
2017-03-21T04:30:17.663Z,998.77
2017-03-21T04:30:58.147Z,998.81
2017-03-21T04:31:38.663Z,998.77
2017-03-21T04:32:19.132Z,998.77
2017-03-21T04:32:59.606Z,998.73
2017-03-21T04:33:40.107Z,998.81
2017-03-21T04:34:20.587Z,998.81
2017-03-21T04:35:01.076Z,998.76
2017-03-21T04:35:41.520Z,998.75
2017-03-21T04:36:21.996Z,998.75
2017-03-21T04:37:02.496Z,998.76
2017-03-21T04:37:42.991Z,998.77
2017-03-21T04:38:23.471Z,998.75
2017-03-21T04:39:03.949Z,998.68
2017-03-21T04:39:44.474Z,998.77
2017-03-21T04:40:24.951Z,998.74
2017-03-21T04:41:05.433Z,998.76
2017-03-21T04:41:45.896Z,998.79
2017-03-21T04:42:26.349Z,998.75
2017-03-21T04:43:06.861Z,998.75
2017-03-21T04:43:47.343Z,998.77
2017-03-21T04:44:27.855Z,998.81
2017-03-21T04:45:08.339Z,998.81
2017-03-21T04:45:48.818Z,998.75
2017-03-21T04:46:29.291Z,998.77
2017-03-21T04:47:09.774Z,998.77
2017-03-21T04:47:50.272Z,998.76
2017-03-21T04:48:30.754Z,998.72
2017-03-21T04:49:11.258Z,998.74
2017-03-21T04:49:51.753Z,998.76
2017-03-21T04:50:32.211Z,998.8
2017-03-21T04:51:12.689Z,998.71
2017-03-21T04:51:53.194Z,998.79
2017-03-21T04:52:33.687Z,998.77
2017-03-21T04:53:14.167Z,998.77
2017-03-21T04:53:54.659Z,998.71
2017-03-21T04:54:35.164Z,998.76
2017-03-21T04:55:15.644Z,998.8
2017-03-21T04:55:56.108Z,998.76
2017-03-21T04:56:36.611Z,998.79
2017-03-21T04:57:17.099Z,998.82
2017-03-21T04:57:57.584Z,998.79
2017-03-21T04:58:38.078Z,998.84
2017-03-21T04:59:18.575Z,998.75
2017-03-21T04:59:59.040Z,998.73
2017-03-21T05:00:39.514Z,998.81
2017-03-21T05:01:20.019Z,998.78
2017-03-21T05:02:00.505Z,998.76
2017-03-21T05:02:40.973Z,998.76
2017-03-21T05:03:21.456Z,998.74
2017-03-21T05:04:01.960Z,998.75
2017-03-21T05:04:42.443Z,998.79
2017-03-21T05:05:22.926Z,998.75
2017-03-21T05:06:03.431Z,998.74
2017-03-21T05:06:43.924Z,998.77
2017-03-21T05:07:24.401Z,998.77
2017-03-21T05:08:04.883Z,998.71
2017-03-21T05:08:45.369Z,998.77
2017-03-21T05:09:25.859Z,998.83
2017-03-21T05:10:06.337Z,998.85
2017-03-21T05:10:46.802Z,998.78
2017-03-21T05:11:27.309Z,998.74
2017-03-21T05:12:07.793Z,998.78
2017-03-21T05:12:48.258Z,998.72
2017-03-21T05:13:28.737Z,998.81
2017-03-21T05:14:09.212Z,998.79
2017-03-21T05:16:26.991Z,998.72
2017-03-21T05:17:07.479Z,998.78
2017-03-21T05:17:47.968Z,998.69
2017-03-21T05:18:28.459Z,998.73
2017-03-21T05:19:08.929Z,998.66
2017-03-21T05:19:49.425Z,998.71
2017-03-21T05:20:29.906Z,998.68
2017-03-21T05:21:10.409Z,998.69
2017-03-21T05:21:50.939Z,998.7
2017-03-21T05:22:31.370Z,998.67
2017-03-21T05:23:11.841Z,998.7
2017-03-21T05:23:52.321Z,998.65
2017-03-21T05:24:32.800Z,998.68
2017-03-21T05:25:13.297Z,998.64
2017-03-21T05:25:53.777Z,998.63
2017-03-21T05:26:34.309Z,998.71
2017-03-21T05:27:14.792Z,998.6
2017-03-21T05:27:55.251Z,998.67
2017-03-21T05:28:35.727Z,998.65
2017-03-21T05:29:16.193Z,998.62
2017-03-21T05:31:08.726Z,998.66
2017-03-21T05:31:49.194Z,998.63
2017-03-21T05:32:29.735Z,998.73
2017-03-21T05:33:10.209Z,998.67
2017-03-21T05:33:50.716Z,998.63
2017-03-21T05:34:31.210Z,998.75
2017-03-21T05:35:11.708Z,998.69
2017-03-21T05:35:52.152Z,998.7
2017-03-21T05:36:32.686Z,998.79
2017-03-21T05:37:13.223Z,998.7
2017-03-21T05:37:53.775Z,998.73
2017-03-21T05:38:34.265Z,998.72
2017-03-21T05:39:14.754Z,998.73
2017-03-21T05:39:55.239Z,998.74
2017-03-21T05:40:35.742Z,998.74
2017-03-21T05:41:16.252Z,998.72
2017-03-21T05:41:56.739Z,998.79
2017-03-21T05:42:37.218Z,998.72
2017-03-21T05:43:17.703Z,998.74
2017-03-21T05:43:58.205Z,998.75
2017-03-21T05:44:38.696Z,998.76
2017-03-21T05:45:19.182Z,998.73
2017-03-21T05:45:59.678Z,998.7
2017-03-21T05:46:40.149Z,998.7
2017-03-21T05:47:20.632Z,998.78
2017-03-21T05:48:01.112Z,998.7
2017-03-21T05:48:41.599Z,998.69
2017-03-21T05:49:22.073Z,998.73
2017-03-21T05:50:02.566Z,998.75
2017-03-21T05:50:43.041Z,998.76
2017-03-21T05:51:23.510Z,998.76
2017-03-21T05:52:04.026Z,998.72
2017-03-21T05:52:44.504Z,998.66
2017-03-21T05:53:24.979Z,998.76
2017-03-21T05:54:05.465Z,998.77
2017-03-21T05:54:45.947Z,998.83
2017-03-21T05:55:26.435Z,998.76
2017-03-21T05:56:06.917Z,998.75
2017-03-21T05:56:47.426Z,998.77
2017-03-21T05:57:27.920Z,998.76
2017-03-21T05:58:08.390Z,998.78
2017-03-21T05:58:48.876Z,998.72
2017-03-21T05:59:29.355Z,998.74
2017-03-21T06:00:09.849Z,998.79
2017-03-21T06:00:50.302Z,998.77
2017-03-21T06:01:30.726Z,998.79
2017-03-21T06:02:11.191Z,998.78
2017-03-21T06:02:51.693Z,998.76
2017-03-21T06:03:32.149Z,998.78
2017-03-21T06:04:12.618Z,998.78
2017-03-21T06:04:53.079Z,998.75
2017-03-21T06:05:33.577Z,998.79
2017-03-21T06:06:14.078Z,998.81
2017-03-21T06:06:54.548Z,998.76
2017-03-21T06:07:35.039Z,998.73
2017-03-21T06:08:15.522Z,998.78
2017-03-21T06:08:56.012Z,998.85
2017-03-21T06:09:36.485Z,998.88
2017-03-21T06:10:16.954Z,998.84
2017-03-21T06:10:57.450Z,998.84
2017-03-21T06:11:37.942Z,998.8
2017-03-21T06:12:18.417Z,998.81
2017-03-21T06:12:58.882Z,998.81
2017-03-21T06:13:39.377Z,998.86
2017-03-21T06:14:19.877Z,998.82
2017-03-21T06:15:00.355Z,998.83
2017-03-21T06:15:40.817Z,998.85
2017-03-21T06:16:21.361Z,998.82
2017-03-21T06:17:01.831Z,998.84
2017-03-21T06:17:42.303Z,998.91
2017-03-21T06:18:22.780Z,998.84
2017-03-21T06:19:03.255Z,998.84
2017-03-21T06:19:43.708Z,998.91
2017-03-21T06:20:24.208Z,998.93
2017-03-21T06:21:04.692Z,998.91
2017-03-21T06:21:45.224Z,998.95
2017-03-21T06:22:25.694Z,998.92
2017-03-21T06:23:06.172Z,998.86
2017-03-21T06:23:46.674Z,998.91
2017-03-21T06:24:27.161Z,998.89
2017-03-21T06:25:07.629Z,998.97
2017-03-21T06:25:48.094Z,998.96
2017-03-21T06:26:28.563Z,999.01
2017-03-21T06:27:09.064Z,998.97
2017-03-21T06:27:49.554Z,998.96
2017-03-21T06:28:30.023Z,999
2017-03-21T06:29:10.499Z,999
2017-03-21T06:29:50.979Z,999.05
2017-03-21T06:30:31.491Z,999.04
2017-03-21T06:31:11.971Z,999.05
2017-03-21T06:31:52.512Z,999.04
2017-03-21T06:32:32.994Z,998.99
2017-03-21T06:33:13.492Z,999
2017-03-21T06:33:53.999Z,999.05
2017-03-21T06:34:34.471Z,999
2017-03-21T06:35:14.974Z,999.06
2017-03-21T06:35:55.465Z,998.99
2017-03-21T06:36:35.946Z,999.02
2017-03-21T06:37:16.436Z,999.03
2017-03-21T06:37:56.937Z,998.97
2017-03-21T06:38:37.406Z,999.03
2017-03-21T06:39:17.870Z,999.04
2017-03-21T06:39:58.359Z,999.04
2017-03-21T06:40:38.853Z,999
2017-03-21T06:41:19.338Z,999.05
2017-03-21T06:41:59.810Z,999.01
2017-03-21T06:42:40.267Z,999.06
2017-03-21T06:43:20.724Z,999.06
2017-03-21T06:45:38.537Z,999.04
2017-03-21T06:46:19.030Z,999.04
2017-03-21T06:46:59.511Z,999.03
2017-03-21T06:47:40.013Z,999
2017-03-21T06:48:20.518Z,999.06
2017-03-21T06:49:00.997Z,999.05
2017-03-21T06:49:41.479Z,999.08
2017-03-21T06:50:21.957Z,999
2017-03-21T06:51:02.451Z,999.06
2017-03-21T06:51:42.931Z,999.04
2017-03-21T06:52:23.462Z,999.05
2017-03-21T06:53:03.936Z,999.07
2017-03-21T06:53:44.417Z,999.06
2017-03-21T06:54:24.919Z,999.04
2017-03-21T06:55:05.406Z,999.09
2017-03-21T06:55:45.880Z,999.07
2017-03-21T06:56:26.332Z,999.06
2017-03-21T06:57:06.826Z,999.08
2017-03-21T06:57:47.313Z,999.1
2017-03-21T06:58:27.809Z,999.07
2017-03-21T06:59:08.287Z,999.05
2017-03-21T06:59:48.766Z,999.12
2017-03-21T07:00:29.267Z,999.14
2017-03-21T07:01:09.738Z,999.14
2017-03-21T07:01:50.221Z,999.14
2017-03-21T07:02:30.734Z,999.19
2017-03-21T07:03:11.217Z,999.18
2017-03-21T07:03:51.776Z,999.17
2017-03-21T07:04:32.245Z,999.16
2017-03-21T07:05:12.735Z,999.18
2017-03-21T07:05:53.208Z,999.18
2017-03-21T07:06:33.707Z,999.24
2017-03-21T07:07:14.178Z,999.19
2017-03-21T07:07:54.677Z,999.22
2017-03-21T07:08:35.179Z,999.28
2017-03-21T07:10:32.787Z,999.25
2017-03-21T07:11:13.239Z,999.23
2017-03-21T07:11:53.710Z,999.25
2017-03-21T07:12:34.219Z,999.19
2017-03-21T07:13:14.701Z,999.25
2017-03-21T07:13:55.179Z,999.3
2017-03-21T07:14:35.642Z,999.19
2017-03-21T07:15:16.142Z,999.29
2017-03-21T07:15:56.635Z,999.29
2017-03-21T07:16:37.139Z,999.24
2017-03-21T07:17:17.621Z,999.28
2017-03-21T07:17:58.340Z,999.29
2017-03-21T07:18:39.061Z,999.21
2017-03-21T07:19:19.741Z,999.31
2017-03-21T07:20:00.278Z,999.24
2017-03-21T07:20:40.758Z,999.31
2017-03-21T07:21:21.200Z,999.29
2017-03-21T07:23:39.308Z,999.25
2017-03-21T07:24:19.832Z,999.29
2017-03-21T07:25:00.304Z,999.31
2017-03-21T07:25:40.767Z,999.3
2017-03-21T07:26:21.225Z,999.32
2017-03-21T07:27:01.696Z,999.3
2017-03-21T07:27:42.171Z,999.28
2017-03-21T07:28:22.643Z,999.25
2017-03-21T07:29:03.162Z,999.26
2017-03-21T07:29:43.662Z,999.32
2017-03-21T07:30:24.145Z,999.3
2017-03-21T07:31:04.640Z,999.33
2017-03-21T07:31:45.116Z,999.39
2017-03-21T07:32:25.597Z,999.39
2017-03-21T07:33:06.079Z,999.38
2017-03-21T07:33:46.583Z,999.37
2017-03-21T07:34:27.074Z,999.31
2017-03-21T07:35:07.588Z,999.3
2017-03-21T07:35:48.068Z,999.34
2017-03-21T07:36:28.564Z,999.32
2017-03-21T07:37:09.081Z,999.32
2017-03-21T07:37:49.573Z,999.29
2017-03-21T07:38:30.083Z,999.32
2017-03-21T07:39:10.631Z,999.25
2017-03-21T07:39:51.121Z,999.27
2017-03-21T07:40:31.578Z,999.31
2017-03-21T07:41:12.115Z,999.33
2017-03-21T07:41:52.660Z,999.37
2017-03-21T07:42:33.169Z,999.41
2017-03-21T07:43:13.628Z,999.34
2017-03-21T07:43:54.126Z,999.31
2017-03-21T07:44:34.628Z,999.26
2017-03-21T07:45:15.100Z,999.38
2017-03-21T07:45:55.613Z,999.38
2017-03-21T07:46:36.090Z,999.32
2017-03-21T07:47:16.579Z,999.34
2017-03-21T07:47:57.090Z,999.38
2017-03-21T07:48:37.617Z,999.35
2017-03-21T07:49:18.070Z,999.38
2017-03-21T07:49:58.583Z,999.35
2017-03-21T07:50:39.064Z,999.34
2017-03-21T07:51:19.561Z,999.35
2017-03-21T07:52:00.039Z,999.34
2017-03-21T07:52:40.534Z,999.37
2017-03-21T07:53:20.989Z,999.31
2017-03-21T07:54:01.471Z,999.31
2017-03-21T07:54:41.960Z,999.28
2017-03-21T07:55:22.466Z,999.28
2017-03-21T07:56:02.952Z,999.33
2017-03-21T07:56:43.458Z,999.29
2017-03-21T07:57:23.942Z,999.28
2017-03-21T07:58:04.424Z,999.24
2017-03-21T07:58:44.956Z,999.21
2017-03-21T07:59:26.036Z,999.25
2017-03-21T08:00:06.508Z,999.25
2017-03-21T08:00:46.968Z,999.31
2017-03-21T08:01:27.476Z,999.2
2017-03-21T08:02:07.979Z,999.25
2017-03-21T08:02:48.511Z,999.26
2017-03-21T08:03:29.038Z,999.16
2017-03-21T08:04:09.559Z,999.25
2017-03-21T08:04:50.089Z,999.21
2017-03-21T08:05:30.594Z,999.24
2017-03-21T08:06:11.093Z,999.22
2017-03-21T08:06:51.587Z,999.24
2017-03-21T08:07:32.073Z,999.27
2017-03-21T08:08:12.555Z,999.32
2017-03-21T08:08:53.029Z,999.32
2017-03-21T08:09:33.529Z,999.36
2017-03-21T08:10:14.023Z,999.35
2017-03-21T08:12:26.743Z,999.37
2017-03-21T08:13:07.353Z,999.4
2017-03-21T08:13:47.846Z,999.39
2017-03-21T08:14:28.308Z,999.33
2017-03-21T08:15:08.791Z,999.41
2017-03-21T08:15:49.345Z,999.4
2017-03-21T08:16:29.851Z,999.36
2017-03-21T08:17:10.343Z,999.31
2017-03-21T08:17:50.863Z,999.43
2017-03-21T08:18:31.310Z,999.37
2017-03-21T08:19:11.785Z,999.37
2017-03-21T08:19:52.276Z,999.4
2017-03-21T08:20:32.744Z,999.43
2017-03-21T08:21:13.237Z,999.41
2017-03-21T08:21:53.725Z,999.38
2017-03-21T08:22:34.212Z,999.42
2017-03-21T08:23:14.693Z,999.46
2017-03-21T08:23:55.213Z,999.41
2017-03-21T08:24:35.697Z,999.42
2017-03-21T08:25:16.201Z,999.48
2017-03-21T08:25:56.688Z,999.51
2017-03-21T08:26:37.173Z,999.46
2017-03-21T08:27:17.844Z,999.47
2017-03-21T08:27:58.358Z,999.45
2017-03-21T08:28:38.864Z,999.51
2017-03-21T08:29:19.322Z,999.52
2017-03-21T08:29:59.838Z,999.45
2017-03-21T08:30:40.334Z,999.49
2017-03-21T08:31:20.815Z,999.5
2017-03-21T08:32:01.270Z,999.44
2017-03-21T08:32:41.769Z,999.47
2017-03-21T08:33:22.208Z,999.46
2017-03-21T08:34:03.202Z,999.43
2017-03-21T08:34:43.709Z,999.49
2017-03-21T08:35:24.345Z,999.47
2017-03-21T08:36:04.816Z,999.46
2017-03-21T08:36:45.287Z,999.51
2017-03-21T08:37:25.789Z,999.45
2017-03-21T08:38:06.287Z,999.48
2017-03-21T08:38:46.752Z,999.53
2017-03-21T08:39:27.231Z,999.6
2017-03-21T08:40:07.767Z,999.48
2017-03-21T08:40:48.234Z,999.53
2017-03-21T08:41:28.755Z,999.54
2017-03-21T08:42:09.244Z,999.6
2017-03-21T08:42:49.745Z,999.59
2017-03-21T08:44:42.316Z,999.67
2017-03-21T08:45:22.826Z,999.72
2017-03-21T08:46:03.308Z,999.72